sensor_id;sensor_type;location;lat;lon;timestamp;pressure;altitude;pressure_sealevel;temperature
13497;BMP180;6820;49.374;8.452;2023-05-01T00:00:40;100526.31;;;20.70
13497;BMP180;6820;49.374;8.452;2023-05-01T00:04:42;100521.09;;;20.67
13497;BMP180;6820;49.374;8.452;2023-05-01T00:08:44;100515.03;;;20.65
13497;BMP180;6820;49.374;8.452;2023-05-01T00:12:45;100504.59;;;20.59
13497;BMP180;6820;49.374;8.452;2023-05-01T00:16:47;100510.47;;;20.55
13497;BMP180;6820;49.374;8.452;2023-05-01T00:20:49;100494.13;;;20.53
13497;BMP180;6820;49.374;8.452;2023-05-01T00:24:50;100490.69;;;20.52
13497;BMP180;6820;49.374;8.452;2023-05-01T00:28:52;100492.34;;;20.50
13497;BMP180;6820;49.374;8.452;2023-05-01T00:32:54;100486.19;;;20.44
13497;BMP180;6820;49.374;8.452;2023-05-01T00:36:56;100484.34;;;20.39
13497;BMP180;6820;49.374;8.452;2023-05-01T00:40:59;100485.84;;;20.29
13497;BMP180;6820;49.374;8.452;2023-05-01T00:45:00;100473.72;;;20.25
13497;BMP180;6820;49.374;8.452;2023-05-01T00:49:02;100468.41;;;20.19
13497;BMP180;6820;49.374;8.452;2023-05-01T00:53:04;100477.56;;;20.07
13497;BMP180;6820;49.374;8.452;2023-05-01T00:57:06;100477.31;;;19.98
13497;BMP180;6820;49.374;8.452;2023-05-01T01:01:11;100474.19;;;19.78
13497;BMP180;6820;49.374;8.452;2023-05-01T01:05:13;100473.16;;;19.71
13497;BMP180;6820;49.374;8.452;2023-05-01T01:14:07;100464.56;;;19.71
13497;BMP180;6820;49.374;8.452;2023-05-01T01:18:18;100465.31;;;19.67
13497;BMP180;6820;49.374;8.452;2023-05-01T01:22:23;100453.00;;;19.55
13497;BMP180;6820;49.374;8.452;2023-05-01T01:35:32;100461.97;;;19.39
13497;BMP180;6820;49.374;8.452;2023-05-01T01:39:53;100468.78;;;19.37
13497;BMP180;6820;49.374;8.452;2023-05-01T01:44:11;100458.56;;;19.40
13497;BMP180;6820;49.374;8.452;2023-05-01T01:48:24;100458.41;;;19.34
13497;BMP180;6820;49.374;8.452;2023-05-01T01:52:28;100461.03;;;19.35
13497;BMP180;6820;49.374;8.452;2023-05-01T01:56:32;100461.41;;;19.49
13497;BMP180;6820;49.374;8.452;2023-05-01T02:00:35;100455.72;;;19.60
13497;BMP180;6820;49.374;8.452;2023-05-01T02:04:37;100456.56;;;19.60
13497;BMP180;6820;49.374;8.452;2023-05-01T02:08:41;100450.41;;;19.54
13497;BMP180;6820;49.374;8.452;2023-05-01T02:12:45;100457.16;;;19.51
13497;BMP180;6820;49.374;8.452;2023-05-01T02:16:49;100450.22;;;19.47
13497;BMP180;6820;49.374;8.452;2023-05-01T02:20:51;100447.63;;;19.47
13497;BMP180;6820;49.374;8.452;2023-05-01T02:24:55;100439.06;;;19.46
13497;BMP180;6820;49.374;8.452;2023-05-01T02:28:57;100450.22;;;19.47
13497;BMP180;6820;49.374;8.452;2023-05-01T02:32:59;100448.50;;;19.47
13497;BMP180;6820;49.374;8.452;2023-05-01T02:37:03;100441.72;;;19.49
13497;BMP180;6820;49.374;8.452;2023-05-01T02:41:07;100434.63;;;19.41
13497;BMP180;6820;49.374;8.452;2023-05-01T02:45:17;100434.78;;;19.47
13497;BMP180;6820;49.374;8.452;2023-05-01T02:49:19;100432.22;;;19.48
13497;BMP180;6820;49.374;8.452;2023-05-01T02:53:21;100432.22;;;19.48
13497;BMP180;6820;49.374;8.452;2023-05-01T02:57:28;100424.44;;;19.45
13497;BMP180;6820;49.374;8.452;2023-05-01T03:01:29;100421.00;;;19.45
13497;BMP180;6820;49.374;8.452;2023-05-01T03:05:31;100418.53;;;19.48
13497;BMP180;6820;49.374;8.452;2023-05-01T03:09:33;100410.00;;;19.49
13497;BMP180;6820;49.374;8.452;2023-05-01T03:13:35;100416.78;;;19.47
13497;BMP180;6820;49.374;8.452;2023-05-01T03:17:37;100413.06;;;19.36
13497;BMP180;6820;49.374;8.452;2023-05-01T03:21:40;100412.72;;;19.24
13497;BMP180;6820;49.374;8.452;2023-05-01T03:25:42;100411.66;;;19.16
13497;BMP180;6820;49.374;8.452;2023-05-01T03:29:44;100409.59;;;19.03
13497;BMP180;6820;49.374;8.452;2023-05-01T03:33:45;100408.81;;;19.06
13497;BMP180;6820;49.374;8.452;2023-05-01T03:37:49;100407.28;;;19.12
13497;BMP180;6820;49.374;8.452;2023-05-01T03:42:11;100413.28;;;19.13
13497;BMP180;6820;49.374;8.452;2023-05-01T03:46:15;100397.03;;;19.14
13497;BMP180;6820;49.374;8.452;2023-05-01T03:50:17;100397.00;;;19.12
13497;BMP180;6820;49.374;8.452;2023-05-01T03:54:21;100401.97;;;19.06
13497;BMP180;6820;49.374;8.452;2023-05-01T03:58:32;100394.97;;;19.01
13497;BMP180;6820;49.374;8.452;2023-05-01T04:02:34;100395.22;;;19.10
13497;BMP180;6820;49.374;8.452;2023-05-01T04:06:36;100396.22;;;19.15
13497;BMP180;6820;49.374;8.452;2023-05-01T04:10:40;100398.00;;;19.17
13497;BMP180;6820;49.374;8.452;2023-05-01T04:14:42;100398.06;;;19.20
13497;BMP180;6820;49.374;8.452;2023-05-01T04:18:45;100399.94;;;19.25
13497;BMP180;6820;49.374;8.452;2023-05-01T04:22:46;100394.94;;;19.30
13497;BMP180;6820;49.374;8.452;2023-05-01T04:26:48;100402.66;;;19.31
13497;BMP180;6820;49.374;8.452;2023-05-01T04:30:50;100397.50;;;19.30
13497;BMP180;6820;49.374;8.452;2023-05-01T04:34:52;100394.88;;;19.28
13497;BMP180;6820;49.374;8.452;2023-05-01T04:38:55;100395.72;;;19.27
13497;BMP180;6820;49.374;8.452;2023-05-01T04:42:56;100401.50;;;19.21
13497;BMP180;6820;49.374;8.452;2023-05-01T04:47:00;100406.63;;;19.19
13497;BMP180;6820;49.374;8.452;2023-05-01T04:51:03;100397.38;;;19.27
13497;BMP180;6820;49.374;8.452;2023-05-01T04:55:08;100403.16;;;19.19
13497;BMP180;6820;49.374;8.452;2023-05-01T04:59:16;100399.56;;;19.12
13497;BMP180;6820;49.374;8.452;2023-05-01T05:03:18;100406.63;;;19.19
13497;BMP180;6820;49.374;8.452;2023-05-01T05:07:21;100403.44;;;19.29
13497;BMP180;6820;49.374;8.452;2023-05-01T05:11:57;100403.56;;;19.33
13497;BMP180;6820;49.374;8.452;2023-05-01T05:15:59;100406.16;;;19.33
13497;BMP180;6820;49.374;8.452;2023-05-01T05:20:01;100408.16;;;19.45
13497;BMP180;6820;49.374;8.452;2023-05-01T05:24:04;100402.22;;;19.47
13497;BMP180;6820;49.374;8.452;2023-05-01T05:28:06;100411.22;;;19.62
13497;BMP180;6820;49.374;8.452;2023-05-01T05:32:08;100413.16;;;19.72
13497;BMP180;6820;49.374;8.452;2023-05-01T05:36:11;100409.16;;;19.82
13497;BMP180;6820;49.374;8.452;2023-05-01T05:40:15;100403.56;;;19.99
13497;BMP180;6820;49.374;8.452;2023-05-01T05:44:27;100401.25;;;20.08
13497;BMP180;6820;49.374;8.452;2023-05-01T05:48:29;100402.13;;;20.08
13497;BMP180;6820;49.374;8.452;2023-05-01T05:52:31;100407.50;;;20.18
13497;BMP180;6820;49.374;8.452;2023-05-01T05:56:34;100401.81;;;20.31
13497;BMP180;6820;49.374;8.452;2023-05-01T06:00:36;100395.44;;;20.54
13497;BMP180;6820;49.374;8.452;2023-05-01T06:04:39;100394.84;;;20.64
13497;BMP180;6820;49.374;8.452;2023-05-01T06:08:41;100400.91;;;20.66
13497;BMP180;6820;49.374;8.452;2023-05-01T06:12:45;100400.50;;;20.87
13497;BMP180;6820;49.374;8.452;2023-05-01T06:16:55;100400.78;;;21.01
13497;BMP180;6820;49.374;8.452;2023-05-01T06:20:56;100387.00;;;21.00
13497;BMP180;6820;49.374;8.452;2023-05-01T06:24:58;100395.22;;;21.24
13497;BMP180;6820;49.374;8.452;2023-05-01T06:29:03;100384.19;;;21.32
13497;BMP180;6820;49.374;8.452;2023-05-01T06:33:05;100384.84;;;21.21
13497;BMP180;6820;49.374;8.452;2023-05-01T06:37:07;100382.91;;;21.09
13497;BMP180;6820;49.374;8.452;2023-05-01T06:41:09;100388.72;;;21.00
13497;BMP180;6820;49.374;8.452;2023-05-01T06:45:10;100392.78;;;20.89
13497;BMP180;6820;49.374;8.452;2023-05-01T06:49:12;100390.59;;;21.08
13497;BMP180;6820;49.374;8.452;2023-05-01T06:53:14;100399.34;;;21.14
13497;BMP180;6820;49.374;8.452;2023-05-01T06:57:16;100402.06;;;21.22
13497;BMP180;6820;49.374;8.452;2023-05-01T07:01:18;100405.56;;;21.27
13497;BMP180;6820;49.374;8.452;2023-05-01T07:05:20;100398.75;;;21.29
13497;BMP180;6820;49.374;8.452;2023-05-01T07:09:22;100391.16;;;21.35
13497;BMP180;6820;49.374;8.452;2023-05-01T07:13:25;100405.28;;;21.54
13497;BMP180;6820;49.374;8.452;2023-05-01T07:17:28;100393.50;;;21.68
13497;BMP180;6820;49.374;8.452;2023-05-01T07:21:29;100408.22;;;21.75
13497;BMP180;6820;49.374;8.452;2023-05-01T07:25:32;100415.38;;;21.91
13497;BMP180;6820;49.374;8.452;2023-05-01T07:29:35;100401.81;;;22.02
13497;BMP180;6820;49.374;8.452;2023-05-01T07:33:37;100396.78;;;22.09
13497;BMP180;6820;49.374;8.452;2023-05-01T07:37:38;100392.91;;;22.36
13497;BMP180;6820;49.374;8.452;2023-05-01T07:41:40;100377.53;;;22.47
13497;BMP180;6820;49.374;8.452;2023-05-01T07:45:53;100381.25;;;22.65
13497;BMP180;6820;49.374;8.452;2023-05-01T07:49:55;100375.63;;;22.94
13497;BMP180;6820;49.374;8.452;2023-05-01T07:53:57;100374.94;;;23.08
13497;BMP180;6820;49.374;8.452;2023-05-01T07:58:04;100368.25;;;23.28
13497;BMP180;6820;49.374;8.452;2023-05-01T08:02:06;100383.03;;;23.42
13497;BMP180;6820;49.374;8.452;2023-05-01T08:06:08;100387.41;;;23.48
13497;BMP180;6820;49.374;8.452;2023-05-01T08:10:10;100386.63;;;23.53
13497;BMP180;6820;49.374;8.452;2023-05-01T08:14:11;100389.38;;;23.68
13497;BMP180;6820;49.374;8.452;2023-05-01T08:18:13;100380.75;;;23.72
13497;BMP180;6820;49.374;8.452;2023-05-01T08:22:21;100387.69;;;23.73
13497;BMP180;6820;49.374;8.452;2023-05-01T08:26:23;100379.88;;;23.68
13497;BMP180;6820;49.374;8.452;2023-05-01T08:30:25;100383.38;;;23.70
13497;BMP180;6820;49.374;8.452;2023-05-01T08:34:27;100388.66;;;23.84
13497;BMP180;6820;49.374;8.452;2023-05-01T08:38:28;100372.41;;;24.02
13497;BMP180;6820;49.374;8.452;2023-05-01T08:42:30;100376.81;;;24.15
13497;BMP180;6820;49.374;8.452;2023-05-01T08:46:44;100373.31;;;24.07
13497;BMP180;6820;49.374;8.452;2023-05-01T08:50:47;100368.19;;;24.16
13497;BMP180;6820;49.374;8.452;2023-05-01T08:54:51;100378.75;;;24.44
13497;BMP180;6820;49.374;8.452;2023-05-01T08:58:55;100376.97;;;24.36
13497;BMP180;6820;49.374;8.452;2023-05-01T09:03:00;100372.63;;;24.30
13497;BMP180;6820;49.374;8.452;2023-05-01T09:07:03;100372.53;;;24.20
13497;BMP180;6820;49.374;8.452;2023-05-01T09:11:05;100370.81;;;24.19
13497;BMP180;6820;49.374;8.452;2023-05-01T09:15:07;100368.31;;;24.32
13497;BMP180;6820;49.374;8.452;2023-05-01T09:19:10;100375.22;;;24.32
13497;BMP180;6820;49.374;8.452;2023-05-01T09:23:11;100370.06;;;24.36
13497;BMP180;6820;49.374;8.452;2023-05-01T09:27:13;100367.44;;;24.30
13497;BMP180;6820;49.374;8.452;2023-05-01T09:31:24;100356.22;;;24.28
13497;BMP180;6820;49.374;8.452;2023-05-01T09:35:29;100358.00;;;24.37
13497;BMP180;6820;49.374;8.452;2023-05-01T09:39:31;100363.13;;;24.32
13497;BMP180;6820;49.374;8.452;2023-05-01T09:43:33;100357.94;;;24.31
13497;BMP180;6820;49.374;8.452;2023-05-01T09:47:34;100356.22;;;24.28
13497;BMP180;6820;49.374;8.452;2023-05-01T09:51:36;100357.88;;;24.22
13497;BMP180;6820;49.374;8.452;2023-05-01T09:55:38;100357.03;;;24.21
13497;BMP180;6820;49.374;8.452;2023-05-01T09:59:40;100360.50;;;24.28
13497;BMP180;6820;49.374;8.452;2023-05-01T10:03:42;100358.81;;;24.30
13497;BMP180;6820;49.374;8.452;2023-05-01T10:07:56;100364.84;;;24.29
13497;BMP180;6820;49.374;8.452;2023-05-01T10:11:57;100368.34;;;24.35
13497;BMP180;6820;49.374;8.452;2023-05-01T10:15:59;100363.25;;;24.54
13497;BMP180;6820;49.374;8.452;2023-05-01T10:20:07;100364.16;;;24.62
13497;BMP180;6820;49.374;8.452;2023-05-01T10:24:09;100362.41;;;24.55
13497;BMP180;6820;49.374;8.452;2023-05-01T10:28:11;100359.81;;;24.57
13497;BMP180;6820;49.374;8.452;2023-05-01T10:32:14;100371.16;;;24.79
13497;BMP180;6820;49.374;8.452;2023-05-01T10:36:24;100354.91;;;25.14
13497;BMP180;6820;49.374;8.452;2023-05-01T10:44:41;100342.88;;;25.78
13497;BMP180;6820;49.374;8.452;2023-05-01T10:57:41;100335.06;;;26.20
13497;BMP180;6820;49.374;8.452;2023-05-01T11:01:48;100331.56;;;26.30
13497;BMP180;6820;49.374;8.452;2023-05-01T11:10:00;100326.34;;;26.35
13497;BMP180;6820;49.374;8.452;2023-05-01T11:14:06;100327.28;;;26.14
13497;BMP180;6820;49.374;8.452;2023-05-01T11:18:08;100329.00;;;26.10
13497;BMP180;6820;49.374;8.452;2023-05-01T11:22:11;100329.88;;;26.14
13497;BMP180;6820;49.374;8.452;2023-05-01T11:26:13;100328.13;;;26.32
13497;BMP180;6820;49.374;8.452;2023-05-01T11:30:15;100325.38;;;26.73
13497;BMP180;6820;49.374;8.452;2023-05-01T11:34:17;100314.81;;;27.09
13497;BMP180;6820;49.374;8.452;2023-05-01T11:38:19;100319.88;;;27.26
13497;BMP180;6820;49.374;8.452;2023-05-01T11:42:21;100313.84;;;27.20
13497;BMP180;6820;49.374;8.452;2023-05-01T11:46:27;100311.28;;;27.17
13497;BMP180;6820;49.374;8.452;2023-05-01T11:50:37;100314.78;;;27.07
13497;BMP180;6820;49.374;8.452;2023-05-01T11:54:46;100314.63;;;27.29
13497;BMP180;6820;49.374;8.452;2023-05-01T11:58:48;100298.84;;;27.56
13497;BMP180;6820;49.374;8.452;2023-05-01T12:03:03;100296.28;;;27.53
13497;BMP180;6820;49.374;8.452;2023-05-01T12:07:19;100291.03;;;27.56
13497;BMP180;6820;49.374;8.452;2023-05-01T12:11:20;100297.06;;;27.67
13497;BMP180;6820;49.374;8.452;2023-05-01T12:15:23;100300.50;;;27.67
13497;BMP180;6820;49.374;8.452;2023-05-01T12:19:25;100296.19;;;27.63
13497;BMP180;6820;49.374;8.452;2023-05-01T12:23:33;100297.91;;;27.66
13497;BMP180;6820;49.374;8.452;2023-05-01T12:27:44;100292.41;;;27.98
13497;BMP180;6820;49.374;8.452;2023-05-01T12:31:47;100291.06;;;28.42
13497;BMP180;6820;49.374;8.452;2023-05-01T12:35:49;100283.78;;;28.68
13497;BMP180;6820;49.374;8.452;2023-05-01T12:39:51;100285.13;;;28.97
13497;BMP180;6820;49.374;8.452;2023-05-01T12:43:53;100283.22;;;29.12
13497;BMP180;6820;49.374;8.452;2023-05-01T12:47:54;100283.00;;;29.27
13497;BMP180;6820;49.374;8.452;2023-05-01T12:51:58;100280.28;;;29.31
13497;BMP180;6820;49.374;8.452;2023-05-01T12:56:00;100270.63;;;29.38
13497;BMP180;6820;49.374;8.452;2023-05-01T13:00:03;100273.63;;;29.14
13497;BMP180;6820;49.374;8.452;2023-05-01T13:04:05;100261.59;;;29.01
13497;BMP180;6820;49.374;8.452;2023-05-01T13:08:07;100271.22;;;28.96
13497;BMP180;6820;49.374;8.452;2023-05-01T13:12:09;100273.31;;;28.71
13497;BMP180;6820;49.374;8.452;2023-05-01T13:16:14;100282.00;;;28.73
13497;BMP180;6820;49.374;8.452;2023-05-01T13:20:24;100274.97;;;28.79
13497;BMP180;6820;49.374;8.452;2023-05-01T13:24:40;100266.84;;;28.98
13497;BMP180;6820;49.374;8.452;2023-05-01T13:28:43;100265.00;;;29.05
13497;BMP180;6820;49.374;8.452;2023-05-01T13:32:47;100261.44;;;29.13
13497;BMP180;6820;49.374;8.452;2023-05-01T13:36:50;100258.03;;;29.08
13497;BMP180;6820;49.374;8.452;2023-05-01T13:40:51;100263.63;;;28.81
13497;BMP180;6820;49.374;8.452;2023-05-01T13:44:54;100260.41;;;28.62
13497;BMP180;6820;49.374;8.452;2023-05-01T13:49:00;100259.69;;;28.51
13497;BMP180;6820;49.374;8.452;2023-05-01T13:53:05;100239.78;;;28.41
13497;BMP180;6820;49.374;8.452;2023-05-01T13:57:07;100238.97;;;28.38
13497;BMP180;6820;49.374;8.452;2023-05-01T14:01:17;100233.06;;;28.22
13497;BMP180;6820;49.374;8.452;2023-05-01T14:05:25;100245.47;;;28.04
13497;BMP180;6820;49.374;8.452;2023-05-01T14:09:28;100240.25;;;28.03
13497;BMP180;6820;49.374;8.452;2023-05-01T14:13:30;100240.31;;;27.98
13497;BMP180;6820;49.374;8.452;2023-05-01T14:17:33;100228.16;;;27.97
13497;BMP180;6820;49.374;8.452;2023-05-01T14:21:39;100235.16;;;27.92
13497;BMP180;6820;49.374;8.452;2023-05-01T14:25:44;100227.00;;;28.23
13497;BMP180;6820;49.374;8.452;2023-05-01T14:29:46;100224.50;;;28.78
13497;BMP180;6820;49.374;8.452;2023-05-01T14:33:57;100223.94;;;29.18
13497;BMP180;6820;49.374;8.452;2023-05-01T14:38:07;100223.41;;;29.49
13497;BMP180;6820;49.374;8.452;2023-05-01T14:42:09;100222.84;;;29.82
13497;BMP180;6820;49.374;8.452;2023-05-01T14:46:11;100224.91;;;30.08
13497;BMP180;6820;49.374;8.452;2023-05-01T14:50:21;100224.97;;;29.59
13497;BMP180;6820;49.374;8.452;2023-05-01T14:54:23;100230.22;;;29.06
13497;BMP180;6820;49.374;8.452;2023-05-01T14:58:25;100226.34;;;28.74
13497;BMP180;6820;49.374;8.452;2023-05-01T15:02:26;100228.53;;;28.39
13497;BMP180;6820;49.374;8.452;2023-05-01T15:06:28;100238.47;;;28.06
13497;BMP180;6820;49.374;8.452;2023-05-01T15:10:30;100236.06;;;27.87
13497;BMP180;6820;49.374;8.452;2023-05-01T15:14:32;100232.69;;;27.78
13497;BMP180;6820;49.374;8.452;2023-05-01T15:18:34;100226.63;;;27.76
13497;BMP180;6820;49.374;8.452;2023-05-01T15:22:36;100228.41;;;27.72
13497;BMP180;6820;49.374;8.452;2023-05-01T15:26:41;100224.88;;;27.78
13497;BMP180;6820;49.374;8.452;2023-05-01T15:30:44;100228.31;;;27.80
13497;BMP180;6820;49.374;8.452;2023-05-01T15:34:46;100230.19;;;27.66
13497;BMP180;6820;49.374;8.452;2023-05-01T15:38:50;100236.47;;;27.44
13497;BMP180;6820;49.374;8.452;2023-05-01T15:42:51;100233.97;;;27.26
13497;BMP180;6820;49.374;8.452;2023-05-01T15:46:53;100238.38;;;27.20
13497;BMP180;6820;49.374;8.452;2023-05-01T15:50:55;100238.38;;;27.20
13497;BMP180;6820;49.374;8.452;2023-05-01T15:54:57;100247.00;;;27.28
13497;BMP180;6820;49.374;8.452;2023-05-01T15:59:01;100242.63;;;27.33
13497;BMP180;6820;49.374;8.452;2023-05-01T16:03:03;100238.28;;;27.38
13497;BMP180;6820;49.374;8.452;2023-05-01T16:07:05;100242.63;;;27.31
13497;BMP180;6820;49.374;8.452;2023-05-01T16:11:09;100255.88;;;27.03
13497;BMP180;6820;49.374;8.452;2023-05-01T16:15:13;100261.22;;;26.80
13497;BMP180;6820;49.374;8.452;2023-05-01T16:19:15;100257.78;;;26.67
13497;BMP180;6820;49.374;8.452;2023-05-01T16:23:17;100256.06;;;26.63
13497;BMP180;6820;49.374;8.452;2023-05-01T16:27:18;100263.97;;;26.47
13497;BMP180;6820;49.374;8.452;2023-05-01T16:31:20;100269.22;;;26.30
13497;BMP180;6820;49.374;8.452;2023-05-01T16:35:28;100277.91;;;26.08
13497;BMP180;6820;49.374;8.452;2023-05-01T16:39:30;100277.94;;;25.99
13497;BMP180;6820;49.374;8.452;2023-05-01T16:43:31;100281.41;;;25.88
13497;BMP180;6820;49.374;8.452;2023-05-01T16:47:33;100288.34;;;25.80
13497;BMP180;6820;49.374;8.452;2023-05-01T16:51:35;100283.19;;;25.68
13497;BMP180;6820;49.374;8.452;2023-05-01T16:55:36;100290.13;;;25.62
13497;BMP180;6820;49.374;8.452;2023-05-01T16:59:38;100293.56;;;25.62
13497;BMP180;6820;49.374;8.452;2023-05-01T17:03:40;100291.84;;;25.49
13497;BMP180;6820;49.374;8.452;2023-05-01T17:07:41;100290.94;;;25.33
13497;BMP180;6820;49.374;8.452;2023-05-01T17:11:43;100294.41;;;25.30
13497;BMP180;6820;49.374;8.452;2023-05-01T17:15:45;100296.09;;;25.15
13497;BMP180;6820;49.374;8.452;2023-05-01T17:19:47;100311.63;;;25.00
13497;BMP180;6820;49.374;8.452;2023-05-01T17:23:48;100321.06;;;24.82
13497;BMP180;6820;49.374;8.452;2023-05-01T17:27:50;100319.25;;;24.68
13497;BMP180;6820;49.374;8.452;2023-05-01T17:31:52;100327.03;;;24.63
13497;BMP180;6820;49.374;8.452;2023-05-01T17:35:53;100333.06;;;24.64
13497;BMP180;6820;49.374;8.452;2023-05-01T17:39:57;100337.41;;;24.63
13497;BMP180;6820;49.374;8.452;2023-05-01T17:43:58;100335.63;;;24.59
13497;BMP180;6820;49.374;8.452;2023-05-01T17:48:00;100345.09;;;24.51
13497;BMP180;6820;49.374;8.452;2023-05-01T17:52:02;100350.22;;;24.38
13497;BMP180;6820;49.374;8.452;2023-05-01T17:56:03;100361.41;;;24.33
13497;BMP180;6820;49.374;8.452;2023-05-01T18:00:09;100361.31;;;24.18
13497;BMP180;6820;49.374;8.452;2023-05-01T18:04:14;100362.88;;;23.98
13497;BMP180;6820;49.374;8.452;2023-05-01T18:08:16;100365.34;;;23.85
13497;BMP180;6820;49.374;8.452;2023-05-01T18:12:18;100375.63;;;23.76
13497;BMP180;6820;49.374;8.452;2023-05-01T18:16:19;100378.19;;;23.70
13497;BMP180;6820;49.374;8.452;2023-05-01T18:20:23;100381.59;;;23.65
13497;BMP180;6820;49.374;8.452;2023-05-01T18:24:24;100385.00;;;23.62
13497;BMP180;6820;49.374;8.452;2023-05-01T18:28:26;100379.72;;;23.53
13497;BMP180;6820;49.374;8.452;2023-05-01T18:32:29;100394.38;;;23.50
13497;BMP180;6820;49.374;8.452;2023-05-01T18:36:47;100386.50;;;23.43
13497;BMP180;6820;49.374;8.452;2023-05-01T18:40:52;100392.44;;;23.34
13497;BMP180;6820;49.374;8.452;2023-05-01T18:44:54;100396.69;;;23.28
13497;BMP180;6820;49.374;8.452;2023-05-01T18:48:57;100406.09;;;23.22
13497;BMP180;6820;49.374;8.452;2023-05-01T18:53:00;100402.63;;;23.17
13497;BMP180;6820;49.374;8.452;2023-05-01T18:57:02;100411.16;;;23.11
13497;BMP180;6820;49.374;8.452;2023-05-01T19:01:03;100426.59;;;23.05
13497;BMP180;6820;49.374;8.452;2023-05-01T19:05:06;100435.16;;;23.03
13497;BMP180;6820;49.374;8.452;2023-05-01T19:09:09;100443.78;;;23.02
13497;BMP180;6820;49.374;8.452;2023-05-01T19:13:11;100452.38;;;22.99
13497;BMP180;6820;49.374;8.452;2023-05-01T19:17:13;100455.81;;;22.98
13497;BMP180;6820;49.374;8.452;2023-05-01T19:21:15;100460.13;;;22.99
13497;BMP180;6820;49.374;8.452;2023-05-01T19:25:17;100464.41;;;22.96
13497;BMP180;6820;49.374;8.452;2023-05-01T19:29:19;100469.47;;;22.87
13497;BMP180;6820;49.374;8.452;2023-05-01T19:33:21;100471.94;;;22.81
13497;BMP180;6820;49.374;8.452;2023-05-01T19:37:22;100482.19;;;22.78
13497;BMP180;6820;49.374;8.452;2023-05-01T19:41:24;100487.38;;;22.78
13497;BMP180;6820;49.374;8.452;2023-05-01T19:45:26;100499.41;;;22.76
13497;BMP180;6820;49.374;8.452;2023-05-01T19:49:28;100497.66;;;22.75
13497;BMP180;6820;49.374;8.452;2023-05-01T19:53:30;100499.31;;;22.70
13497;BMP180;6820;49.374;8.452;2023-05-01T19:57:32;100508.56;;;22.55
13497;BMP180;6820;49.374;8.452;2023-05-01T20:01:34;100511.75;;;22.39
13497;BMP180;6820;49.374;8.452;2023-05-01T20:05:37;100519.16;;;22.20
13497;BMP180;6820;49.374;8.452;2023-05-01T20:09:39;100526.50;;;21.99
13497;BMP180;6820;49.374;8.452;2023-05-01T20:13:41;100537.59;;;21.94
13497;BMP180;6820;49.374;8.452;2023-05-01T20:17:42;100535.63;;;21.83
13497;BMP180;6820;49.374;8.452;2023-05-01T20:21:44;100553.69;;;21.83
13497;BMP180;6820;49.374;8.452;2023-05-01T20:25:46;100549.50;;;21.86
13497;BMP180;6820;49.374;8.452;2023-05-01T20:29:48;100548.78;;;21.95
13497;BMP180;6820;49.374;8.452;2023-05-01T20:33:50;100548.25;;;22.10
13497;BMP180;6820;49.374;8.452;2023-05-01T20:37:52;100553.56;;;22.19
13497;BMP180;6820;49.374;8.452;2023-05-01T20:41:54;100540.78;;;22.27
13497;BMP180;6820;49.374;8.452;2023-05-01T20:45:56;100542.63;;;22.33
13497;BMP180;6820;49.374;8.452;2023-05-01T20:49:58;100549.59;;;22.39
13497;BMP180;6820;49.374;8.452;2023-05-01T20:54:00;100552.25;;;22.42
13497;BMP180;6820;49.374;8.452;2023-05-01T20:58:02;100555.78;;;22.48
13497;BMP180;6820;49.374;8.452;2023-05-01T21:02:04;100560.09;;;22.49
13497;BMP180;6820;49.374;8.452;2023-05-01T21:06:06;100557.56;;;22.51
13497;BMP180;6820;49.374;8.452;2023-05-01T21:10:08;100572.19;;;22.50
13497;BMP180;6820;49.374;8.452;2023-05-01T21:14:11;100580.81;;;22.51
13497;BMP180;6820;49.374;8.452;2023-05-01T21:18:13;100581.66;;;22.50
13497;BMP180;6820;49.374;8.452;2023-05-01T21:22:22;100593.53;;;22.40
13497;BMP180;6820;49.374;8.452;2023-05-01T21:26:24;100589.94;;;22.31
13497;BMP180;6820;49.374;8.452;2023-05-01T21:34:33;100602.47;;;22.10
13497;BMP180;6820;49.374;8.452;2023-05-01T21:38:35;100605.09;;;22.13
13497;BMP180;6820;49.374;8.452;2023-05-01T21:42:38;100600.00;;;22.16
13497;BMP180;6820;49.374;8.452;2023-05-01T21:46:40;100603.31;;;22.11
13497;BMP180;6820;49.374;8.452;2023-05-01T21:50:42;100608.53;;;22.14
13497;BMP180;6820;49.374;8.452;2023-05-01T21:54:48;100600.84;;;22.15
13497;BMP180;6820;49.374;8.452;2023-05-01T21:58:49;100600.88;;;22.18
13497;BMP180;6820;49.374;8.452;2023-05-01T22:02:52;100605.25;;;22.22
13497;BMP180;6820;49.374;8.452;2023-05-01T22:06:54;100609.59;;;22.25
13497;BMP180;6820;49.374;8.452;2023-05-01T22:10:56;100616.41;;;22.20
13497;BMP180;6820;49.374;8.452;2023-05-01T22:14:57;100619.69;;;22.11
13497;BMP180;6820;49.374;8.452;2023-05-01T22:18:59;100615.16;;;22.01
13497;BMP180;6820;49.374;8.452;2023-05-01T22:23:00;100621.00;;;21.93
13497;BMP180;6820;49.374;8.452;2023-05-01T22:27:02;100626.16;;;21.93
13497;BMP180;6820;49.374;8.452;2023-05-01T22:31:04;100626.91;;;21.88
13497;BMP180;6820;49.374;8.452;2023-05-01T22:35:05;100631.97;;;21.82
13497;BMP180;6820;49.374;8.452;2023-05-01T22:39:08;100631.91;;;21.79
13497;BMP180;6820;49.374;8.452;2023-05-01T22:43:10;100637.94;;;21.79
13497;BMP180;6820;49.374;8.452;2023-05-01T22:47:11;100634.44;;;21.77
13497;BMP180;6820;49.374;8.452;2023-05-01T22:51:13;100649.97;;;21.79
13497;BMP180;6820;49.374;8.452;2023-05-01T22:55:15;100649.91;;;21.77
13497;BMP180;6820;49.374;8.452;2023-05-01T22:59:17;100651.56;;;21.74
13497;BMP180;6820;49.374;8.452;2023-05-01T23:03:19;100650.81;;;21.78
13497;BMP180;6820;49.374;8.452;2023-05-01T23:07:21;100661.03;;;21.75
13497;BMP180;6820;49.374;8.452;2023-05-01T23:11:29;100670.25;;;21.64
13497;BMP180;6820;49.374;8.452;2023-05-01T23:15:30;100661.31;;;21.47
13497;BMP180;6820;49.374;8.452;2023-05-01T23:19:33;100663.63;;;21.36
13497;BMP180;6820;49.374;8.452;2023-05-01T23:23:34;100656.59;;;21.32
13497;BMP180;6820;49.374;8.452;2023-05-01T23:27:39;100655.50;;;21.21
13497;BMP180;6820;49.374;8.452;2023-05-01T23:31:45;100668.19;;;21.12
13497;BMP180;6820;49.374;8.452;2023-05-01T23:35:48;100664.56;;;21.04
13497;BMP180;6820;49.374;8.452;2023-05-01T23:39:49;100667.97;;;21.03
13497;BMP180;6820;49.374;8.452;2023-05-01T23:43:54;100662.81;;;21.03
13497;BMP180;6820;49.374;8.452;2023-05-01T23:47:57;100667.75;;;20.94
13497;BMP180;6820;49.374;8.452;2023-05-01T23:51:59;100669.25;;;20.86
13497;BMP180;6820;49.374;8.452;2023-05-01T23:56:00;100675.91;;;20.77
